METAR AND TAF INFORMATION
METAR FOR EHVK
ADDS - METARS form results

(1424 UTC 18 July 2018)
Data provider http://aviationweather.gov/adds/metars/
 
METAR text: EHVK 181355Z AUTO VRB03KT 9999 BKN060 OVC065 25/10 Q1018 BLU VRB03KT CAVOK
Conditions at: EHVK (VOLKEL RNLAFB , NL) observed 1355 UTC 18 July 2018
Temperature: 25.0°C (77°F)
Dewpoint: 10.0°C (50°F) [RH = 39%]
Pressure (altimeter): 30.06 inches Hg (1018.0 mb)
Winds: variable direction winds at 3 MPH (3 knots; 1.6 m/s)
Visibility: 6 or more miles (10+ km)
Ceiling: 6000 feet AGL
Clouds: broken clouds at 6000 feet AGL
overcast cloud deck at 6500 feet AGL
Weather: no significant weather observed at this time

METAR text: EHVK 181325Z AUTO 13003KT 060V230 9999 BKN059 25/09 Q1018 BLU VRB03KT CAVOK
Conditions at: EHVK (VOLKEL RNLAFB , NL) observed 1325 UTC 18 July 2018
Temperature: 25.0°C (77°F)
Dewpoint: 9.0°C (48°F) [RH = 36%]
Pressure (altimeter): 30.06 inches Hg (1018.0 mb)
Winds: from the SE (130 degrees) at 3 MPH (3 knots; 1.6 m/s)
Visibility: 6 or more miles (10+ km)
Ceiling: 5900 feet AGL
Clouds: broken clouds at 5900 feet AGL
Weather: no significant weather observed at this time

Forecast for: EHVK (VOLKEL RNLAFB , NL)
Text: TAF EHVK 180833Z 1809/1821 26007KT CAVOK
Forecast period: 0900 to 2100 UTC 18 July 2018
Forecast type: FROM: standard forecast or significant change
Winds: from the W (260 degrees) at 8 MPH (7 knots; 3.6 m/s)
Visibility: 6 or more miles (10+ km)
Clouds: not forecast
Weather: NSW  (no significant weather)

 AIRPORT MAP

 RUNWAY INFORMATION
Runway 06L Runway length 9922 ft Runway width 148 ft
Runway elevation 71 ft Runway displaced threshold 444 ft Runway heading 58
Runway 24R Runway length 9922 ft Runway width 148 ft
Runway elevation 64 ft Runway displaced threshold 444 ft Runway heading 238
Runway 06R Runway length 9931 ft Runway width 74 ft
Runway elevation 72 ft Runway displaced threshold 446 ft Runway heading 58
Runway 24L Runway length 9931 ft Runway width 74 ft
Runway elevation 65 ft Runway displaced threshold 446 ft Runway heading 238

 AIRPORT FREQUENCIES
Type APP Name RAPCON SOU Frequency 123.175 MHZ
Type GND Name GND Frequency 38.677 MHZ
Type TWR Name TWR Frequency 133.425 MHZ

 AIRPORT NEAR NAVIGATION AIDS
Type TACAN Name Volkel Frequency 108300 KHZ